Time;durP1;ratioP1;P1;durP2;ratioP2;P2;SDS_P1;SDS_P2;PMS_P1;PMS_P2;Temp;Humidity;BMP_temperature;BMP_pressure;BME280_temperature;BME280_humidity;BME280_pressure;Samples;Min_cycle;Max_cycle;Signal;HPM_P1;HPM_P2
2024/02/09 00:01:19;;;;;;;15.97;3.40;;;;;;;;;;4899282;29;20235;-79
2024/02/09 00:03:46;;;;;;;11.83;3.10;;;;;;;;;;4899463;29;20204;-80
2024/02/09 00:06:13;;;;;;;12.87;3.27;;;;;;;;;;4899690;29;20641;-78
2024/02/09 00:08:41;;;;;;;14.07;2.80;;;;;;;;;;4899192;29;20332;-79
2024/02/09 00:11:11;;;;;;;11.33;2.97;;;;;;;;;;4899377;29;20205;-79
2024/02/09 00:13:42;;;;;;;10.03;2.67;;;;;;;;;;4899327;29;20236;-80
2024/02/09 00:16:10;;;;;;;13.33;2.80;;;;;;;;;;4898604;29;20227;-79
2024/02/09 00:18:39;;;;;;;10.23;2.30;;;;;;;;;;4898918;29;20675;-77
2024/02/09 00:21:06;;;;;;;14.03;2.30;;;;;;;;;;4899028;29;20260;-77
2024/02/09 00:23:34;;;;;;;11.60;2.77;;;;;;;;;;4898788;29;20235;-79
2024/02/09 00:26:02;;;;;;;10.90;2.50;;;;;;;;;;4898863;29;20241;-80
2024/02/09 00:28:30;;;;;;;13.43;2.57;;;;;;;;;;4898670;29;20209;-79
2024/02/09 00:30:59;;;;;;;10.77;2.00;;;;;;;;;;4899038;29;20212;-79
2024/02/09 00:33:26;;;;;;;11.27;1.73;;;;;;;;;;4898862;29;20225;-79
2024/02/09 00:35:53;;;;;;;10.40;1.67;;;;;;;;;;4898921;29;20284;-80
2024/02/09 00:38:20;;;;;;;13.43;2.00;;;;;;;;;;4898978;29;20265;-79
2024/02/09 00:40:48;;;;;;;7.20;1.67;;;;;;;;;;4899385;29;20243;-79
2024/02/09 00:43:17;;;;;;;8.27;1.60;;;;;;;;;;4897777;29;20201;-79
2024/02/09 00:45:44;;;;;;;9.37;1.70;;;;;;;;;;4898434;29;20795;-79
2024/02/09 00:48:12;;;;;;;8.70;1.60;;;;;;;;;;4899292;29;20280;-79
2024/02/09 00:50:39;;;;;;;8.03;1.70;;;;;;;;;;4898292;29;20202;-78
2024/02/09 00:53:10;;;;;;;8.27;1.20;;;;;;;;;;4898683;29;20211;-79
2024/02/09 00:55:37;;;;;;;6.83;1.17;;;;;;;;;;4898402;29;20205;-78
2024/02/09 00:58:04;;;;;;;6.00;1.33;;;;;;;;;;4898532;29;20288;-79
2024/02/09 01:00:32;;;;;;;9.63;1.30;;;;;;;;;;4898185;29;20211;-79
2024/02/09 01:03:00;;;;;;;6.83;1.07;;;;;;;;;;4897769;29;20241;-79
2024/02/09 01:05:29;;;;;;;10.37;1.90;;;;;;;;;;4898190;29;20209;-78
2024/02/09 01:07:57;;;;;;;12.13;1.83;;;;;;;;;;4897926;29;20328;-79
2024/02/09 01:10:24;;;;;;;7.53;1.40;;;;;;;;;;4897690;29;20694;-79
2024/02/09 02:46:16;;;;;;;24.17;3.43;;;;;;;;;;4889486;29;20201;-79
2024/02/09 03:05:28;;;;;;;22.80;3.07;;;;;;;;;;4856639;29;20608;-79
2024/02/09 03:07:57;;;;;;;19.50;3.47;;;;;;;;;;4856323;29;20359;-78
2024/02/09 03:10:24;;;;;;;24.30;3.27;;;;;;;;;;4856458;29;20738;-79
2024/02/09 03:12:51;;;;;;;25.73;4.17;;;;;;;;;;4856732;29;20285;-76
2024/02/09 03:15:20;;;;;;;23.70;4.07;;;;;;;;;;4856530;29;20294;-78
2024/02/09 03:17:51;;;;;;;21.77;3.57;;;;;;;;;;4856695;29;20297;-79
2024/02/09 03:20:18;;;;;;;21.30;3.70;;;;;;;;;;4855993;29;20898;-79
2024/02/09 03:22:46;;;;;;;22.93;3.03;;;;;;;;;;4856476;29;20230;-79
2024/02/09 03:25:14;;;;;;;20.10;3.10;;;;;;;;;;4865277;29;20668;-79
2024/02/09 03:27:42;;;;;;;22.03;4.07;;;;;;;;;;4877670;29;20236;-79
2024/02/09 03:30:10;;;;;;;21.27;3.93;;;;;;;;;;4877504;29;20754;-78
2024/02/09 03:32:44;;;;;;;25.87;3.57;;;;;;;;;;4877210;29;20293;-79
2024/02/09 03:35:12;;;;;;;26.83;4.40;;;;;;;;;;4877195;29;20232;-79
2024/02/09 03:37:42;;;;;;;26.93;3.73;;;;;;;;;;4888325;29;20216;-79
2024/02/09 03:40:10;;;;;;;24.67;3.67;;;;;;;;;;4895929;29;20208;-78
2024/02/09 03:42:37;;;;;;;21.20;3.87;;;;;;;;;;4895656;29;20324;-79
2024/02/09 03:45:06;;;;;;;19.77;3.40;;;;;;;;;;4896102;29;20215;-79
2024/02/09 03:47:34;;;;;;;18.07;3.03;;;;;;;;;;4896141;29;20208;-79
2024/02/09 03:50:04;;;;;;;19.43;3.03;;;;;;;;;;4895698;29;20288;-79
2024/02/09 03:52:31;;;;;;;22.27;4.00;;;;;;;;;;4895939;29;20284;-78
2024/02/09 03:54:58;;;;;;;22.73;3.87;;;;;;;;;;4895369;29;20232;-79
2024/02/09 03:57:26;;;;;;;21.73;3.73;;;;;;;;;;4895951;29;20293;-79
2024/02/09 03:59:54;;;;;;;19.87;3.63;;;;;;;;;;4895870;29;20284;-77
2024/02/09 04:02:21;;;;;;;19.80;3.30;;;;;;;;;;4895712;29;20324;-79
2024/02/09 04:04:48;;;;;;;22.93;3.90;;;;;;;;;;4895667;29;20236;-79
2024/02/09 04:07:20;;;;;;;17.47;3.30;;;;;;;;;;4895628;29;20240;-79
2024/02/09 04:09:48;;;;;;;20.13;3.20;;;;;;;;;;4895775;29;20212;-79
2024/02/09 04:12:15;;;;;;;22.17;4.13;;;;;;;;;;4895656;29;20603;-79
2024/02/09 04:14:42;;;;;;;23.07;3.73;;;;;;;;;;4896005;29;20592;-78
2024/02/09 04:17:10;;;;;;;22.17;3.57;;;;;;;;;;4895841;29;20631;-79
2024/02/09 04:19:38;;;;;;;22.60;3.20;;;;;;;;;;4895342;29;20202;-79
2024/02/09 04:22:08;;;;;;;21.63;3.27;;;;;;;;;;4895490;29;20237;-79
2024/02/09 04:24:37;;;;;;;22.13;3.20;;;;;;;;;;4895320;29;20233;-78
2024/02/09 04:27:05;;;;;;;24.63;3.97;;;;;;;;;;4895754;29;20197;-78
2024/02/09 04:29:36;;;;;;;24.87;3.67;;;;;;;;;;4895631;29;20211;-77
2024/02/09 04:32:04;;;;;;;26.70;3.20;;;;;;;;;;4895425;29;20209;-79
2024/02/09 04:34:32;;;;;;;20.53;3.50;;;;;;;;;;4895164;29;20297;-79
2024/02/09 04:37:00;;;;;;;21.50;3.83;;;;;;;;;;4895422;29;20202;-78
2024/02/09 04:39:27;;;;;;;25.47;4.10;;;;;;;;;;4898003;29;20208;-79
2024/02/09 04:41:55;;;;;;;23.30;3.50;;;;;;;;;;4898689;29;20269;-78
2024/02/09 04:44:23;;;;;;;20.03;3.10;;;;;;;;;;4898660;29;20300;-79
2024/02/09 04:46:50;;;;;;;23.27;3.73;;;;;;;;;;4899053;29;20295;-78
2024/02/09 04:49:17;;;;;;;25.87;4.03;;;;;;;;;;4898416;29;20269;-78
2024/02/09 04:51:45;;;;;;;23.13;3.40;;;;;;;;;;4898890;29;20244;-79
2024/02/09 04:54:13;;;;;;;21.73;3.67;;;;;;;;;;4898338;29;20746;-79
2024/02/09 04:56:40;;;;;;;20.13;3.27;;;;;;;;;;4898349;29;21043;-78
2024/02/09 04:59:10;;;;;;;24.40;4.03;;;;;;;;;;4898457;29;20208;-78
2024/02/09 05:01:38;;;;;;;18.13;3.23;;;;;;;;;;4898382;29;20256;-78
2024/02/09 05:04:07;;;;;;;20.00;3.27;;;;;;;;;;4898434;29;20241;-78
2024/02/09 05:06:35;;;;;;;20.00;3.03;;;;;;;;;;4898269;29;20228;-78
2024/02/09 05:09:03;;;;;;;22.60;2.97;;;;;;;;;;4898455;29;20670;-78
2024/02/09 05:11:33;;;;;;;17.23;2.87;;;;;;;;;;4898348;29;20257;-78
2024/02/09 05:14:00;;;;;;;20.40;3.17;;;;;;;;;;4898772;29;20296;-78
2024/02/09 05:16:29;;;;;;;24.03;3.00;;;;;;;;;;4897883;29;20660;-78
2024/02/09 05:18:56;;;;;;;23.00;3.10;;;;;;;;;;4898451;29;20288;-78
2024/02/09 05:21:23;;;;;;;18.40;3.40;;;;;;;;;;4898300;29;20312;-79
2024/02/09 05:23:50;;;;;;;24.57;3.50;;;;;;;;;;4897843;29;20328;-78
2024/02/09 05:26:20;;;;;;;18.00;3.37;;;;;;;;;;4898536;29;20292;-79
2024/02/09 05:28:48;;;;;;;25.67;3.40;;;;;;;;;;4898259;29;20208;-78
2024/02/09 05:31:15;;;;;;;28.97;3.07;;;;;;;;;;4897773;29;20217;-78
2024/02/09 05:33:44;;;;;;;15.60;2.70;;;;;;;;;;4898175;29;20209;-78
2024/02/09 05:36:20;;;;;;;27.17;3.10;;;;;;;;;;4897556;29;20762;-79
2024/02/09 05:38:47;;;;;;;16.47;2.47;;;;;;;;;;4879343;29;20624;-77
2024/02/09 05:41:15;;;;;;;12.23;2.13;;;;;;;;;;4878902;29;20220;-79
2024/02/09 05:43:42;;;;;;;18.70;2.80;;;;;;;;;;4879426;29;20328;-78
2024/02/09 05:46:09;;;;;;;22.60;3.17;;;;;;;;;;4878958;29;20198;-79
2024/02/09 05:48:37;;;;;;;15.93;2.50;;;;;;;;;;4879137;29;20766;-78
2024/02/09 05:51:10;;;;;;;19.17;2.60;;;;;;;;;;4879268;29;20292;-78
2024/02/09 05:53:37;;;;;;;18.03;2.87;;;;;;;;;;4878755;29;20682;-78
2024/02/09 05:56:05;;;;;;;15.00;2.40;;;;;;;;;;4878701;29;20296;-79
2024/02/09 05:58:34;;;;;;;17.17;2.93;;;;;;;;;;4878729;29;20202;-78
2024/02/09 06:01:01;;;;;;;17.57;2.97;;;;;;;;;;4878500;29;20208;-79
2024/02/09 06:03:28;;;;;;;17.43;2.60;;;;;;;;;;4878550;29;20268;-79
2024/02/09 06:05:56;;;;;;;19.27;2.90;;;;;;;;;;4878829;29;20206;-80
2024/02/09 06:08:24;;;;;;;13.97;2.03;;;;;;;;;;4880922;29;20323;-78
2024/02/09 06:10:52;;;;;;;21.27;3.00;;;;;;;;;;4897564;29;20710;-79
2024/02/09 06:13:19;;;;;;;21.07;3.00;;;;;;;;;;4897140;29;20226;-79
2024/02/09 06:15:46;;;;;;;17.27;3.10;;;;;;;;;;4897116;29;20197;-77
2024/02/09 06:18:13;;;;;;;21.00;3.00;;;;;;;;;;4896905;29;20614;-79
2024/02/09 06:20:40;;;;;;;17.90;2.67;;;;;;;;;;4896601;29;20765;-81
2024/02/09 06:23:07;;;;;;;23.10;3.33;;;;;;;;;;4897195;29;20292;-80
2024/02/09 06:25:36;;;;;;;17.03;2.70;;;;;;;;;;4897112;29;20705;-79
2024/02/09 06:28:03;;;;;;;21.73;3.23;;;;;;;;;;4897315;29;20237;-80
2024/02/09 06:30:31;;;;;;;22.23;3.17;;;;;;;;;;4896516;29;20205;-80
2024/02/09 06:32:58;;;;;;;17.90;3.33;;;;;;;;;;4897008;29;20209;-81
2024/02/09 06:35:25;;;;;;;18.30;2.93;;;;;;;;;;4896898;29;20232;-79
2024/02/09 06:37:56;;;;;;;20.47;3.20;;;;;;;;;;4896834;29;20712;-80
2024/02/09 06:40:23;;;;;;;19.93;2.70;;;;;;;;;;4894005;29;20208;-80
2024/02/09 06:42:51;;;;;;;22.63;3.30;;;;;;;;;;4886003;29;20272;-79
2024/02/09 06:45:18;;;;;;;22.33;3.50;;;;;;;;;;4887111;29;20705;-80
2024/02/09 06:47:45;;;;;;;23.00;3.33;;;;;;;;;;4896688;29;20212;-80
2024/02/09 06:50:12;;;;;;;27.83;3.97;;;;;;;;;;4876286;29;20208;-81
2024/02/09 06:52:41;;;;;;;21.27;3.23;;;;;;;;;;4893952;29;20690;-80
2024/02/09 06:55:11;;;;;;;21.30;3.23;;;;;;;;;;4895889;29;20209;-79
2024/02/09 06:57:44;;;;;;;21.07;3.13;;;;;;;;;;4895886;29;20671;-80
2024/02/09 07:00:14;;;;;;;30.27;4.20;;;;;;;;;;4895369;29;20205;-79
2024/02/09 07:02:41;;;;;;;27.57;3.77;;;;;;;;;;4896165;29;20225;-80
2024/02/09 07:05:11;;;;;;;26.07;3.07;;;;;;;;;;4896005;29;20284;-80
2024/02/09 07:07:43;;;;;;;27.03;3.37;;;;;;;;;;4895956;29;20614;-79
2024/02/09 07:10:10;;;;;;;22.23;4.20;;;;;;;;;;4896360;29;20209;-81
2024/02/09 07:12:37;;;;;;;30.67;4.27;;;;;;;;;;4895235;29;20215;-80
2024/02/09 07:15:05;;;;;;;22.33;4.20;;;;;;;;;;4896126;29;20322;-79
2024/02/09 07:17:34;;;;;;;21.53;3.13;;;;;;;;;;4895970;29;20678;-80
2024/02/09 07:20:03;;;;;;;22.30;3.43;;;;;;;;;;4895830;29;20205;-80
2024/02/09 07:22:30;;;;;;;26.50;3.97;;;;;;;;;;4895593;29;20690;-79
2024/02/09 07:24:57;;;;;;;18.57;3.23;;;;;;;;;;4896018;29;20201;-80
2024/02/09 07:27:25;;;;;;;25.27;3.87;;;;;;;;;;4895539;29;20241;-80
2024/02/09 07:29:52;;;;;;;23.57;3.80;;;;;;;;;;4895947;29;20201;-80
2024/02/09 07:32:19;;;;;;;27.03;3.50;;;;;;;;;;4895434;29;20295;-81
2024/02/09 07:34:48;;;;;;;21.93;3.63;;;;;;;;;;4895856;29;20201;-80
2024/02/09 07:37:15;;;;;;;24.17;3.77;;;;;;;;;;4895252;29;20272;-80
2024/02/09 07:39:42;;;;;;;21.53;3.20;;;;;;;;;;4895949;29;20201;-80
2024/02/09 07:42:09;;;;;;;22.00;3.63;;;;;;;;;;4895388;29;20654;-81
2024/02/09 07:44:37;;;;;;;16.93;3.10;;;;;;;;;;4894875;29;20922;-80
2024/02/09 07:47:04;;;;;;;20.63;3.93;;;;;;;;;;4894921;29;20578;-81
2024/02/09 07:49:32;;;;;;;20.80;3.33;;;;;;;;;;4896093;29;20619;-80
2024/02/09 07:52:01;;;;;;;19.67;3.00;;;;;;;;;;4895298;29;20824;-81
2024/02/09 07:54:28;;;;;;;19.70;3.30;;;;;;;;;;4895698;29;20219;-81
2024/02/09 07:56:56;;;;;;;18.27;3.33;;;;;;;;;;4895178;29;20198;-80
2024/02/09 07:59:24;;;;;;;17.63;2.30;;;;;;;;;;4895386;29;20288;-81
2024/02/09 08:01:52;;;;;;;14.27;2.90;;;;;;;;;;4895661;29;20229;-80
2024/02/09 08:04:19;;;;;;;13.80;2.57;;;;;;;;;;4895466;29;20237;-80
2024/02/09 08:06:47;;;;;;;15.50;2.33;;;;;;;;;;4895364;29;20762;-81
2024/02/09 08:09:16;;;;;;;12.10;2.10;;;;;;;;;;4895272;29;20294;-81
2024/02/09 08:11:45;;;;;;;13.57;2.13;;;;;;;;;;4895204;29;20285;-81
2024/02/09 08:14:12;;;;;;;12.30;1.97;;;;;;;;;;4897857;29;20229;-81
2024/02/09 08:16:39;;;;;;;14.00;2.63;;;;;;;;;;4898636;29;20737;-81
2024/02/09 08:19:09;;;;;;;17.40;2.37;;;;;;;;;;4898888;29;20297;-81
2024/02/09 08:21:39;;;;;;;18.37;2.53;;;;;;;;;;4894881;29;20232;-81
2024/02/09 08:24:07;;;;;;;17.80;2.40;;;;;;;;;;4898596;29;20245;-81
2024/02/09 08:26:36;;;;;;;16.90;2.57;;;;;;;;;;4898083;29;20565;-80
2024/02/09 08:29:03;;;;;;;15.80;2.50;;;;;;;;;;4898598;29;20739;-80
2024/02/09 08:31:30;;;;;;;12.63;2.43;;;;;;;;;;4898529;29;20229;-80
2024/02/09 08:33:57;;;;;;;15.77;2.47;;;;;;;;;;4898123;29;20254;-80
2024/02/09 08:36:26;;;;;;;14.73;2.60;;;;;;;;;;4898247;29;20295;-81
2024/02/09 08:38:54;;;;;;;15.93;3.00;;;;;;;;;;4898282;29;20301;-80
2024/02/09 08:41:21;;;;;;;17.97;3.10;;;;;;;;;;4897802;29;20667;-81
2024/02/09 08:43:50;;;;;;;10.60;2.50;;;;;;;;;;4898391;29;20790;-80
2024/02/09 08:46:17;;;;;;;17.20;2.50;;;;;;;;;;4898364;29;20292;-80
2024/02/09 08:48:44;;;;;;;15.37;2.43;;;;;;;;;;4898498;29;20205;-80
2024/02/09 08:51:11;;;;;;;12.17;2.40;;;;;;;;;;4897733;29;20201;-80
2024/02/09 08:53:38;;;;;;;17.07;2.47;;;;;;;;;;4897687;29;20302;-82
2024/02/09 08:56:06;;;;;;;14.07;2.37;;;;;;;;;;4897570;29;20750;-80
2024/02/09 08:58:33;;;;;;;16.13;2.70;;;;;;;;;;4898264;29;20201;-81
2024/02/09 09:01:02;;;;;;;13.80;2.30;;;;;;;;;;4907174;29;20299;-81
2024/02/09 09:03:29;;;;;;;16.63;2.73;;;;;;;;;;4917487;29;20725;-81
2024/02/09 09:05:57;;;;;;;11.10;2.50;;;;;;;;;;4916934;29;20211;-81
2024/02/09 09:08:24;;;;;;;10.70;2.77;;;;;;;;;;4916247;29;20236;-81
2024/02/09 09:10:52;;;;;;;14.97;2.77;;;;;;;;;;4914266;29;20292;-80
2024/02/09 09:13:19;;;;;;;20.20;3.80;;;;;;;;;;4897712;29;20294;-81
2024/02/09 09:15:47;;;;;;;15.67;3.00;;;;;;;;;;4897228;29;20237;-81
2024/02/09 09:18:15;;;;;;;12.00;2.40;;;;;;;;;;4897625;29;20233;-81
2024/02/09 09:20:43;;;;;;;14.13;2.83;;;;;;;;;;4897873;29;20295;-81
2024/02/09 09:23:11;;;;;;;16.87;2.63;;;;;;;;;;4897511;29;20671;-81
2024/02/09 09:25:38;;;;;;;16.53;2.77;;;;;;;;;;4897357;29;20237;-81
2024/02/09 09:28:05;;;;;;;15.23;2.90;;;;;;;;;;4898341;29;20297;-81
2024/02/09 09:30:33;;;;;;;15.47;3.10;;;;;;;;;;4897546;29;20288;-80
2024/02/09 09:33:00;;;;;;;16.20;2.97;;;;;;;;;;4898152;29;20679;-81
2024/02/09 09:35:29;;;;;;;15.30;3.00;;;;;;;;;;4897440;29;20221;-82
2024/02/09 09:37:56;;;;;;;18.60;3.00;;;;;;;;;;4905292;29;20300;-81
2024/02/09 09:40:25;;;;;;;23.33;3.43;;;;;;;;;;4899645;29;20261;-82
2024/02/09 09:42:52;;;;;;;22.17;3.93;;;;;;;;;;4896647;29;20233;-82
2024/02/09 09:45:19;;;;;;;25.57;3.60;;;;;;;;;;4896218;29;20237;-82
2024/02/09 09:47:46;;;;;;;19.93;3.60;;;;;;;;;;4896714;29;20288;-81
2024/02/09 09:50:14;;;;;;;23.83;3.97;;;;;;;;;;4896991;29;20314;-82
2024/02/09 09:52:44;;;;;;;23.37;3.97;;;;;;;;;;4896202;29;20220;-82
2024/02/09 09:55:12;;;;;;;18.80;3.53;;;;;;;;;;4896988;29;20300;-82
2024/02/09 09:57:39;;;;;;;27.03;3.80;;;;;;;;;;4897035;29;20213;-82
2024/02/09 10:00:08;;;;;;;21.57;3.47;;;;;;;;;;4897042;29;20229;-82
2024/02/09 10:02:37;;;;;;;16.77;3.30;;;;;;;;;;4896803;29;20236;-82
2024/02/09 10:05:09;;;;;;;19.83;3.97;;;;;;;;;;4897385;29;20319;-82
2024/02/09 10:07:40;;;;;;;27.17;4.27;;;;;;;;;;4896406;29;20236;-82
2024/02/09 10:10:10;;;;;;;17.63;3.80;;;;;;;;;;4896598;29;20679;-82
2024/02/09 10:12:37;;;;;;;25.57;3.87;;;;;;;;;;4896557;29;20707;-81
2024/02/09 10:15:05;;;;;;;24.40;3.93;;;;;;;;;;4896907;29;20762;-82
2024/02/09 10:17:32;;;;;;;17.93;3.80;;;;;;;;;;4900673;29;20324;-82
2024/02/09 10:20:00;;;;;;;20.27;3.30;;;;;;;;;;4895638;29;20216;-83
2024/02/09 10:22:28;;;;;;;21.50;3.90;;;;;;;;;;4896083;29;20205;-81
2024/02/09 10:24:55;;;;;;;18.70;3.67;;;;;;;;;;4896531;29;21037;-81
2024/02/09 10:27:24;;;;;;;21.70;3.17;;;;;;;;;;4895081;29;20730;-82
2024/02/09 10:29:52;;;;;;;20.20;3.63;;;;;;;;;;4897069;29;20213;-82
2024/02/09 10:32:19;;;;;;;20.30;3.10;;;;;;;;;;4896700;29;20201;-81
2024/02/09 10:34:50;;;;;;;21.57;3.60;;;;;;;;;;4896566;29;20201;-82
2024/02/09 10:37:17;;;;;;;21.50;3.93;;;;;;;;;;4895580;29;20285;-80
2024/02/09 10:39:44;;;;;;;21.20;3.10;;;;;;;;;;4896569;29;20239;-82
2024/02/09 10:42:14;;;;;;;19.17;3.17;;;;;;;;;;4896654;29;20243;-81
2024/02/09 10:44:46;;;;;;;20.73;3.83;;;;;;;;;;4896412;29;20365;-79
2024/02/09 10:47:14;;;;;;;26.03;4.10;;;;;;;;;;4896731;29;20232;-80
2024/02/09 10:49:44;;;;;;;16.80;3.50;;;;;;;;;;4896210;29;20296;-80
2024/02/09 10:52:11;;;;;;;19.33;3.60;;;;;;;;;;4896128;29;20201;-79
2024/02/09 10:54:39;;;;;;;27.93;4.57;;;;;;;;;;4895914;29;20213;-80
2024/02/09 10:57:07;;;;;;;23.57;3.97;;;;;;;;;;4896330;29;20706;-80
2024/02/09 10:59:36;;;;;;;21.70;3.70;;;;;;;;;;4896341;29;20197;-80
2024/02/09 11:02:05;;;;;;;21.23;3.33;;;;;;;;;;4896421;29;20212;-80
2024/02/09 11:04:34;;;;;;;19.33;3.47;;;;;;;;;;4895462;29;20293;-80
2024/02/09 11:07:01;;;;;;;23.80;3.77;;;;;;;;;;4896474;29;20232;-81
2024/02/09 11:09:28;;;;;;;24.03;4.13;;;;;;;;;;4895926;29;20288;-80
2024/02/09 11:11:55;;;;;;;18.93;3.37;;;;;;;;;;4895708;29;20296;-80
2024/02/09 11:14:30;;;;;;;18.27;3.40;;;;;;;;;;4895985;29;20621;-81
2024/02/09 11:16:57;;;;;;;22.40;3.87;;;;;;;;;;4896260;29;20296;-80
2024/02/09 11:19:27;;;;;;;18.97;3.00;;;;;;;;;;4895832;29;20292;-81
2024/02/09 11:21:57;;;;;;;19.37;3.80;;;;;;;;;;4895050;29;20197;-80
2024/02/09 11:24:26;;;;;;;19.87;3.47;;;;;;;;;;4895792;29;20225;-81
2024/02/09 11:26:53;;;;;;;15.07;3.00;;;;;;;;;;4896161;29;20204;-81
2024/02/09 11:29:21;;;;;;;17.83;3.37;;;;;;;;;;4896105;29;20292;-81
2024/02/09 11:31:50;;;;;;;21.27;3.70;;;;;;;;;;4895176;29;20284;-80
2024/02/09 11:34:18;;;;;;;20.42;3.47;;;;;;;;;;4895222;29;20225;-81
2024/02/09 11:36:47;;;;;;;18.75;3.72;;;;;;;;;;4895059;29;20289;-81
2024/02/09 11:39:16;;;;;;;23.65;3.58;;;;;;;;;;4894638;29;20280;-81
2024/02/09 11:41:44;;;;;;;17.90;3.45;;;;;;;;;;4895324;29;20284;-82
2024/02/09 11:44:11;;;;;;;18.00;3.80;;;;;;;;;;4894476;29;20311;-81
2024/02/09 11:46:38;;;;;;;24.98;4.15;;;;;;;;;;4891956;29;20274;-81
2024/02/09 11:49:07;;;;;;;21.60;3.28;;;;;;;;;;4898093;29;20746;-81
2024/02/09 11:51:34;;;;;;;20.20;3.63;;;;;;;;;;4898360;29;20197;-80
2024/02/09 11:54:03;;;;;;;22.60;4.20;;;;;;;;;;4898540;29;20608;-80
2024/02/09 11:56:30;;;;;;;23.70;3.70;;;;;;;;;;4895842;29;20208;-80
2024/02/09 11:58:58;;;;;;;24.73;3.97;;;;;;;;;;4895777;29;20386;-81
2024/02/09 12:01:25;;;;;;;19.00;3.17;;;;;;;;;;4898441;29;20296;-81
2024/02/09 12:03:52;;;;;;;26.60;3.50;;;;;;;;;;4897945;29;20304;-82
2024/02/09 12:06:21;;;;;;;19.93;3.20;;;;;;;;;;4898122;29;20240;-81
2024/02/09 12:08:50;;;;;;;19.07;3.10;;;;;;;;;;4898254;29;20258;-82
2024/02/09 12:11:19;;;;;;;22.50;3.57;;;;;;;;;;4898719;29;20236;-82
2024/02/09 12:13:46;;;;;;;18.23;3.37;;;;;;;;;;4899462;29;20232;-81
2024/02/09 12:16:16;;;;;;;21.42;3.60;;;;;;;;;;4899233;29;20281;-81
2024/02/09 12:18:44;;;;;;;16.80;3.60;;;;;;;;;;4899068;29;20205;-81
2024/02/09 12:21:11;;;;;;;16.05;3.15;;;;;;;;;;4899205;29;20208;-80
2024/02/09 12:23:38;;;;;;;16.50;3.10;;;;;;;;;;4898992;29;20244;-81
2024/02/09 12:26:08;;;;;;;15.73;3.13;;;;;;;;;;4899148;29;20269;-81
2024/02/09 12:28:37;;;;;;;17.27;3.22;;;;;;;;;;4898871;29;20268;-81
2024/02/09 12:31:08;;;;;;;16.13;3.17;;;;;;;;;;4899283;29;20635;-80
2024/02/09 12:33:35;;;;;;;18.90;3.20;;;;;;;;;;4898658;29;20233;-81
2024/02/09 12:36:07;;;;;;;17.57;3.60;;;;;;;;;;4898785;29;20277;-81
2024/02/09 12:38:40;;;;;;;18.20;3.37;;;;;;;;;;4898350;29;20216;-80
2024/02/09 12:41:08;;;;;;;13.93;3.57;;;;;;;;;;4898948;29;20201;-81
2024/02/09 12:43:37;;;;;;;16.07;3.70;;;;;;;;;;4899038;29;20202;-81
2024/02/09 12:46:06;;;;;;;17.83;3.53;;;;;;;;;;4898095;29;20308;-81
2024/02/09 12:48:36;;;;;;;20.43;3.57;;;;;;;;;;4898490;29;20293;-82
2024/02/09 12:51:04;;;;;;;17.37;3.10;;;;;;;;;;4898057;29;20730;-81
2024/02/09 12:53:33;;;;;;;16.63;3.00;;;;;;;;;;4898376;29;20582;-81
2024/02/09 12:56:00;;;;;;;18.90;3.80;;;;;;;;;;4898539;29;20205;-82
2024/02/09 12:58:27;;;;;;;12.73;2.47;;;;;;;;;;4897690;29;20205;-81
2024/02/09 13:00:56;;;;;;;12.23;2.50;;;;;;;;;;4898339;29;20288;-82
2024/02/09 13:03:24;;;;;;;14.07;2.87;;;;;;;;;;4898401;29;20216;-82
2024/02/09 13:05:51;;;;;;;13.20;2.10;;;;;;;;;;4898120;29;20243;-81
2024/02/09 13:08:21;;;;;;;15.13;2.20;;;;;;;;;;4898212;29;20296;-80
2024/02/09 13:10:48;;;;;;;9.63;2.33;;;;;;;;;;4898762;29;20209;-80
2024/02/09 13:13:16;;;;;;;12.33;2.13;;;;;;;;;;4898378;29;20233;-82
2024/02/09 13:15:43;;;;;;;17.30;2.50;;;;;;;;;;4897841;29;20288;-81
2024/02/09 13:18:12;;;;;;;12.97;2.60;;;;;;;;;;4898319;29;20248;-82
2024/02/09 13:20:41;;;;;;;9.35;2.33;;;;;;;;;;4897833;29;20205;-81
2024/02/09 13:23:08;;;;;;;12.63;2.35;;;;;;;;;;4898112;29;20197;-81
2024/02/09 13:25:37;;;;;;;14.63;2.60;;;;;;;;;;4898107;29;20288;-81
2024/02/09 13:28:06;;;;;;;9.82;1.90;;;;;;;;;;4893224;29;20217;-81
2024/02/09 13:30:33;;;;;;;9.90;2.38;;;;;;;;;;4897501;29;20197;-82
2024/02/09 13:33:01;;;;;;;17.75;2.42;;;;;;;;;;4896704;29;20282;-82
2024/02/09 13:35:29;;;;;;;17.67;2.83;;;;;;;;;;4897550;29;20245;-82
2024/02/09 13:37:56;;;;;;;12.75;2.60;;;;;;;;;;4897555;29;20586;-80
2024/02/09 13:40:24;;;;;;;15.68;2.95;;;;;;;;;;4897815;29;20647;-81
2024/02/09 13:42:51;;;;;;;12.82;2.60;;;;;;;;;;4897766;29;20204;-80
2024/02/09 13:45:21;;;;;;;9.40;2.47;;;;;;;;;;4897353;29;20244;-82
2024/02/09 13:47:51;;;;;;;14.27;2.90;;;;;;;;;;4897195;29;20713;-82
2024/02/09 13:50:23;;;;;;;13.25;2.63;;;;;;;;;;4897860;29;20197;-81
2024/02/09 13:52:53;;;;;;;15.45;2.97;;;;;;;;;;4897599;29;20252;-81
2024/02/09 13:55:22;;;;;;;14.02;2.03;;;;;;;;;;4897051;29;20215;-81
2024/02/09 13:57:50;;;;;;;17.15;3.00;;;;;;;;;;4897446;29;20285;-80
2024/02/09 14:00:18;;;;;;;13.52;2.40;;;;;;;;;;4881206;29;20237;-81
2024/02/09 14:02:45;;;;;;;13.15;2.30;;;;;;;;;;4878365;29;20695;-81
2024/02/09 14:05:13;;;;;;;14.85;2.97;;;;;;;;;;4894017;29;20320;-82
2024/02/09 14:07:40;;;;;;;14.65;3.10;;;;;;;;;;4896930;29;20320;-81
2024/02/09 14:10:11;;;;;;;13.75;2.60;;;;;;;;;;4897376;29;20244;-83
2024/02/09 14:12:39;;;;;;;12.43;2.45;;;;;;;;;;4894648;29;20209;-82
2024/02/09 14:15:08;;;;;;;10.27;2.08;;;;;;;;;;4896504;29;20288;-82
2024/02/09 14:17:36;;;;;;;12.80;2.25;;;;;;;;;;4896637;29;20201;-81
2024/02/09 14:20:03;;;;;;;11.20;2.08;;;;;;;;;;4896898;29;20247;-81
2024/02/09 14:22:30;;;;;;;14.10;2.20;;;;;;;;;;4896435;29;20211;-80
2024/02/09 14:24:58;;;;;;;13.38;2.33;;;;;;;;;;4896814;29;20288;-80
2024/02/09 14:27:29;;;;;;;11.18;2.17;;;;;;;;;;4896272;29;20241;-82
2024/02/09 14:29:58;;;;;;;15.20;3.60;;;;;;;;;;4896579;29;20237;-80
2024/02/09 14:32:25;;;;;;;10.45;2.33;;;;;;;;;;4896921;29;20209;-82
2024/02/09 14:34:52;;;;;;;8.90;2.10;;;;;;;;;;4896271;29;20223;-81
2024/02/09 14:37:19;;;;;;;12.90;2.60;;;;;;;;;;4895896;29;20300;-82
2024/02/09 14:39:47;;;;;;;14.27;2.70;;;;;;;;;;4896065;29;20780;-81
2024/02/09 14:42:14;;;;;;;14.05;2.97;;;;;;;;;;4896303;29;20650;-82
2024/02/09 14:44:47;;;;;;;14.27;2.75;;;;;;;;;;4896537;29;20203;-81
2024/02/09 14:47:16;;;;;;;17.67;3.28;;;;;;;;;;4896134;29;20209;-81
2024/02/09 14:49:44;;;;;;;17.97;3.60;;;;;;;;;;4896161;29;20209;-82
2024/02/09 14:52:11;;;;;;;17.95;3.70;;;;;;;;;;4896581;29;20205;-82
2024/02/09 14:54:40;;;;;;;20.95;3.80;;;;;;;;;;4896148;29;20205;-82
2024/02/09 14:57:07;;;;;;;15.40;3.37;;;;;;;;;;4895868;29;20253;-82
2024/02/09 14:59:34;;;;;;;16.83;3.47;;;;;;;;;;4895847;29;20221;-81
2024/02/09 15:02:03;;;;;;;13.32;2.75;;;;;;;;;;4895915;29;20209;-81
2024/02/09 15:04:30;;;;;;;18.70;3.13;;;;;;;;;;4895974;29;20301;-81
2024/02/09 15:06:57;;;;;;;17.30;3.03;;;;;;;;;;4895653;29;20249;-81
2024/02/09 15:09:27;;;;;;;14.82;2.50;;;;;;;;;;4896277;29;20207;-80
2024/02/09 15:11:56;;;;;;;16.05;2.80;;;;;;;;;;4895212;29;20237;-81
2024/02/09 15:14:24;;;;;;;15.50;2.50;;;;;;;;;;4894851;29;20213;-80
2024/02/09 15:16:52;;;;;;;14.75;3.03;;;;;;;;;;4896424;29;20259;-81
2024/02/09 15:19:21;;;;;;;16.23;3.23;;;;;;;;;;4896178;29;20304;-81
2024/02/09 15:21:50;;;;;;;15.45;2.65;;;;;;;;;;4895810;29;20209;-80
2024/02/09 15:24:18;;;;;;;15.43;2.65;;;;;;;;;;4895988;29;20557;-80
2024/02/09 15:26:45;;;;;;;9.97;2.00;;;;;;;;;;4896160;29;20237;-81
2024/02/09 15:29:12;;;;;;;13.10;2.38;;;;;;;;;;4896260;29;20698;-81
2024/02/09 15:31:40;;;;;;;12.73;2.33;;;;;;;;;;4896467;29;20237;-81
2024/02/09 15:34:09;;;;;;;12.82;2.25;;;;;;;;;;4896513;29;20209;-81
2024/02/09 15:36:39;;;;;;;11.83;2.27;;;;;;;;;;4896310;29;20219;-81
2024/02/09 15:39:07;;;;;;;8.85;1.75;;;;;;;;;;4896199;29;20209;-81
2024/02/09 15:41:35;;;;;;;9.07;2.10;;;;;;;;;;4896397;29;20205;-81
2024/02/09 15:44:03;;;;;;;10.63;2.38;;;;;;;;;;4896284;29;20293;-82
2024/02/09 15:46:30;;;;;;;11.35;2.42;;;;;;;;;;4896246;29;20307;-81
2024/02/09 15:48:57;;;;;;;7.43;2.08;;;;;;;;;;4896585;29;20288;-82
2024/02/09 15:51:25;;;;;;;9.17;2.10;;;;;;;;;;4896276;29;20292;-81
2024/02/09 15:53:54;;;;;;;10.10;1.92;;;;;;;;;;4896133;29;20289;-81
2024/02/09 15:56:24;;;;;;;9.63;2.05;;;;;;;;;;4896071;29;20209;-81
2024/02/09 15:58:51;;;;;;;11.52;2.00;;;;;;;;;;4895990;29;20211;-80
2024/02/09 16:01:18;;;;;;;11.30;1.85;;;;;;;;;;4895921;29;20746;-82
2024/02/09 16:03:46;;;;;;;10.45;1.80;;;;;;;;;;4896291;29;20201;-81
2024/02/09 16:06:13;;;;;;;11.43;2.60;;;;;;;;;;4895742;29;20229;-81
2024/02/09 16:08:40;;;;;;;10.10;1.97;;;;;;;;;;4895894;29;20243;-80
2024/02/09 16:11:09;;;;;;;10.40;2.15;;;;;;;;;;4895586;29;20697;-82
2024/02/09 16:13:37;;;;;;;13.50;2.17;;;;;;;;;;4895881;29;20587;-81
2024/02/09 16:16:07;;;;;;;8.53;1.93;;;;;;;;;;4895946;29;20213;-81
2024/02/09 16:18:34;;;;;;;8.83;1.60;;;;;;;;;;4895930;29;20253;-82
2024/02/09 16:21:01;;;;;;;13.37;2.00;;;;;;;;;;4895410;29;20686;-81
2024/02/09 16:23:28;;;;;;;9.80;1.73;;;;;;;;;;4895929;29;20228;-81
2024/02/09 16:25:56;;;;;;;11.73;2.60;;;;;;;;;;4895793;29;20726;-81